< < Back
Terminal Aerodrome Forecast


Current Version              Previous Versions:   1  2  3  4  5  6  7  8  9  

Terminal Aerodrome Forecast

879
FTAK31 PAJN 281739
TAFAHN
TAF
PAHN 281739Z 2818/2918 30008KT P6SM SKC
     FM282200 31010KT P6SM SCT100
     FM290800 31015KT P6SM BKN100
     FM291300 31015G25KT P6SM BKN050 OVC100
      AMD LTD TO CLD VIS AND WIND=



Latest METAR

401
SAUS70 KWBC 282000
MTRAHN
METAR KAHN 281951Z 08007KT 10SM SCT080 32/23 A3010 RMK AO2 SLP183
T03220233


USA.gov is the U.S. government's official web portal to all federal, state and local government web resources and services.